Latest Weather Observations for Walgett

IDN60801

Issued at 4:05 pm EDT Tuesday 21 October 2014 (issued every 30 minutes, with the page automatically refreshed every 10 minutes)

About weather observations | Map of weather stations | Latest weather observations for NSW | Other Formats
Station Details ID: 052088 Name: WALGETT AIRPORT AWS Lat: -30.04 Lon: 148.12 Height: 133.0 m
Data from the previous 72 hours. | See also: Recent months at Walgett
Date/Time
EDT
Temp
°C
App
Temp
°C
Dew
Point
Rel
Hum
%
Delta-T
°C
Wind Press
QNH
hPa
Press
MSL
hPa
Rain
since 9 am
mm
Dir
 
Spd
km/h
Gust
km/h
Spd
kts
Gust
kts
21/04:00pm 32.2 30.7 9.1 24 13.0 WSW 7 13 4 7 1021.5 1021.1 0.0
21/03:30pm 31.5 29.6 9.1 25 12.6 ENE 9 15 5 8 1022.0 1021.6 0.0
21/03:00pm 31.2 29.2 8.8 25 12.5 N 9 20 5 11 1022.4 1022.0 0.0
21/02:30pm 31.3 27.4 9.5 26 12.4 NE 20 32 11 17 1022.8 1022.4 0.0
21/02:00pm 30.6 27.3 9.5 27 11.9 NNW 17 24 9 13 1023.4 1023.0 0.0
21/01:30pm 30.7 28.3 10.1 28 11.8 NNE 13 24 7 13 1024.0 1023.7 0.0
21/01:00pm 29.4 25.5 9.5 29 11.1 NE 20 30 11 16 1024.5 1024.2 0.0
21/12:30pm 28.8 25.2 10.0 31 10.6 N 19 28 10 15 1025.2 1024.8 0.0
21/12:00pm 28.1 23.8 9.4 31 10.4 NNE 22 33 12 18 1025.6 1025.2 0.0
21/11:30am 28.7 24.8 10.8 33 10.2 NNE 22 39 12 21 1026.0 1025.6 0.0
21/11:00am 27.4 22.2 10.2 34 9.6 NE 28 41 15 22 1026.3 1025.9 0.0
21/10:30am 25.7 20.0 9.9 37 8.8 NNE 30 43 16 23 1026.5 1026.1 0.0
21/10:00am 25.2 20.5 10.6 40 8.1 NNE 26 39 14 21 1026.7 1026.3 0.0
21/09:30am 24.7 19.3 10.9 42 7.8 NE 30 39 16 21 1026.6 1026.2 0.0
21/09:00am 23.8 19.0 11.5 46 6.9 NE 28 41 15 22 1026.4 1026.0 0.0
21/08:30am 22.8 18.0 11.5 49 6.3 NE 28 37 15 20 1026.2 1025.8 0.0
21/08:00am 21.3 16.6 10.8 51 5.8 NE 26 37 14 20 1026.0 1025.6 0.0
21/07:30am 19.9 16.7 10.0 53 5.3 ENE 17 24 9 13 1025.7 1025.3 0.0
21/07:00am 19.2 16.0 9.9 55 5.0 ENE 17 24 9 13 1025.3 1024.9 0.0
21/06:30am 18.9 15.1 9.7 55 4.9 ENE 20 26 11 14 1024.5 1024.2 0.0
21/06:00am 18.9 14.7 9.7 55 4.9 ENE 22 30 12 16 1024.0 1023.7 0.0
21/05:30am 19.2 15.3 9.4 53 5.2 E 20 30 11 16 1023.6 1023.2 0.0
21/05:00am 19.3 14.7 9.5 53 5.2 ENE 24 35 13 19 1023.1 1022.7 0.0
21/04:30am 19.1 14.9 9.6 54 5.1 ENE 22 32 12 17 1023.2 1022.8 0.0
21/04:00am 19.5 15.3 9.7 53 5.2 E 22 30 12 16 1023.1 1022.7 0.0
21/03:30am 19.8 15.5 9.4 51 5.5 E 22 33 12 18 1023.0 1022.6 0.0
21/03:00am 20.2 16.3 9.5 50 5.7 E 20 30 11 16 1023.0 1022.6 0.0
21/02:30am 20.2 16.4 9.2 49 5.9 E 19 32 10 17 1023.0 1022.6 0.0
21/02:00am 20.6 16.8 9.2 48 6.1 E 19 26 10 14 1023.0 1022.6 0.0
21/01:30am 21.2 17.3 9.4 47 6.3 E 20 28 11 15 1023.1 1022.7 0.0
21/01:00am 21.7 17.8 9.3 45 6.6 E 20 28 11 15 1023.3 1022.9 0.0
21/12:30am 22.7 18.4 9.5 43 7.2 E 22 32 12 17 1023.2 1022.8 0.0
21/12:00am 23.6 18.9 9.2 40 7.8 E 24 32 13 17 1023.1 1022.7 0.0
 
Date/Time
EDT
Temp
°C
App
Temp
°C
Dew
Point
Rel
Hum
%
Delta-T
°C
Wind Press
QNH
hPa
Press
MSL
hPa
Rain
since 9 am
mm
Dir
 
Spd
km/h
Gust
km/h
Spd
kts
Gust
kts
20/11:30pm 24.5 20.6 7.2 33 9.1 E 17 24 9 13 1023.1 1022.7 0.0
20/11:00pm 25.5 21.1 6.7 30 9.8 E 19 26 10 14 1022.8 1022.4 0.0
20/10:30pm 26.3 21.7 6.3 28 10.5 E 20 30 11 16 1022.6 1022.2 0.0
20/10:00pm 26.3 21.3 6.3 28 10.4 E 22 32 12 17 1022.4 1022.0 0.0
20/09:47pm 26.4 20.1 5.9 27 10.7 ESE 28 41 15 22 1022.2 1021.8 0.0
20/09:30pm 24.6 22.0 3.3 25 10.5 ESE 6 6 3 3 1021.7 1021.3 0.0
20/09:00pm 24.5 21.4 1.4 22 10.9 ESE 7 7 4 4 1021.4 1021.0 0.0
20/08:30pm 26.4 23.4 1.7 20 11.9 SE 7 9 4 5 1021.1 1020.7 0.0
20/08:00pm 28.6 25.3 2.7 19 12.9 ESE 9 9 5 5 1020.7 1020.3 0.0
20/07:30pm 30.2 27.4 3.3 18 13.7 ESE 7 9 4 5 1020.4 1020.0 0.0
20/07:00pm 31.5 28.2 2.7 16 14.6 ESE 9 15 5 8 1020.1 1019.7 0.0
20/06:30pm 32.2 28.3 3.2 16 14.9 SE 13 17 7 9 1020.0 1019.6 0.0
20/06:00pm 33.0 29.4 2.9 15 15.4 SSE 11 19 6 10 1019.8 1019.4 0.0
20/05:30pm 34.2 29.1 2.9 14 16.2 SSE 19 24 10 13 1019.7 1019.3 0.0
20/05:00pm 34.0 31.9 3.7 15 15.8 N 4 13 2 7 1019.9 1019.5 0.0
20/04:30pm 33.8 29.8 2.6 14 16.0 S 13 20 7 11 1020.0 1019.6 0.0
20/04:00pm 34.1 31.0 3.8 15 15.9 S 9 19 5 10 1020.1 1019.7 0.0
20/03:30pm 33.9 30.8 3.6 15 15.8 SSE 9 20 5 11 1020.5 1020.1 0.0
20/03:00pm 34.2 29.6 3.9 15 15.9 SE 17 26 9 14 1021.0 1020.6 0.0
20/02:30pm 34.1 30.3 3.8 15 15.9 SSE 13 22 7 12 1021.5 1021.1 0.0
20/02:00pm 32.9 29.1 3.8 16 15.1 S 13 22 7 12 1022.0 1021.6 0.0
20/01:30pm 32.6 28.9 4.4 17 14.8 SSE 13 22 7 12 1022.5 1022.1 0.0
20/01:00pm 32.5 29.2 4.3 17 14.7 S 11 17 6 9 1023.0 1022.6 0.0
20/12:30pm 31.3 27.9 4.2 18 14.1 ESE 11 22 6 12 1023.5 1023.1 0.0
20/12:00pm 30.8 27.5 4.5 19 13.7 SSE 11 20 6 11 1024.0 1023.7 0.0
20/11:30am 30.8 27.9 4.5 19 13.7 N 9 17 5 9 1024.4 1024.1 0.0
20/11:00am 29.4 26.5 4.8 21 12.7 NW 9 13 5 7 1024.7 1024.4 0.0
20/10:30am 28.1 24.5 5.0 23 12.0 N 13 17 7 9 1024.9 1024.6 0.0
20/10:00am 27.8 24.4 6.0 25 11.4 N 13 19 7 10 1025.1 1024.7 0.0
20/09:30am 25.9 21.9 4.9 26 10.7 N 15 19 8 10 1025.1 1024.7 0.0
20/09:00am 25.7 21.8 5.3 27 10.4 NNE 15 20 8 11 1024.7 1024.4 0.0
20/08:30am 23.7 20.1 5.1 30 9.4 NNE 13 17 7 9 1024.5 1024.2 0.0
20/08:00am 21.0 16.9 4.6 34 8.0 NE 15 19 8 10 1024.4 1024.1 0.0
20/07:30am 16.4 13.5 2.8 40 6.2 ENE 7 13 4 7 1023.8 1023.5 0.0
20/07:00am 12.4 9.1 -1.1 39 5.4 ENE 6 6 3 3 1023.4 1023.0 0.0
20/06:30am 12.2 9.2 0.9 46 4.8 NE 6 9 3 5 1023.0 1022.6 0.0
20/06:00am 12.0 10.1 0.5 45 4.8 CALM 0 0 0 0 1022.7 1022.3 0.0
20/05:30am 12.1 10.0 -1.1 40 5.3 CALM 0 0 0 0 1022.4 1022.0 0.0
20/05:00am 12.0 9.1 -4.2 32 6.1 NE 2 6 1 3 1022.3 1021.9 0.0
20/04:30am 13.5 10.0 -1.6 35 6.1 NE 7 7 4 4 1022.1 1021.7 0.0
20/04:00am 14.3 11.1 0.5 39 5.9 NE 7 7 4 4 1022.0 1021.6 0.0
20/03:30am 15.6 12.6 4.0 46 5.4 NNE 9 11 5 6 1022.0 1021.6 0.0
20/03:00am 16.0 13.5 3.8 44 5.6 NNE 6 7 3 4 1022.4 1022.0 0.0
20/02:30am 16.6 13.5 3.6 42 6.0 NNE 9 9 5 5 1022.6 1022.2 0.0
20/02:00am 16.1 13.2 2.5 40 6.1 N 7 9 4 5 1022.9 1022.5 0.0
20/01:30am 16.5 13.1 -0.7 31 7.3 NNE 7 9 4 5 1023.4 1023.0 0.0
20/01:00am 19.3 16.3 3.9 36 7.3 NNE 9 9 5 5 1023.6 1023.2 0.0
20/12:30am 19.3 16.6 3.5 35 7.5 NE 7 9 4 5 1023.6 1023.2 0.0
20/12:00am 19.9 16.6 2.7 32 8.0 NE 9 9 5 5 1023.7 1023.3 0.0
 
Date/Time
EDT
Temp
°C
App
Temp
°C
Dew
Point
Rel
Hum
%
Delta-T
°C
Wind Press
QNH
hPa
Press
MSL
hPa
Rain
since 9 am
mm
Dir
 
Spd
km/h
Gust
km/h
Spd
kts
Gust
kts
19/11:30pm 19.4 16.0 1.9 31 8.0 ENE 9 9 5 5 1023.6 1023.2 0.0
19/11:00pm 21.0 17.7 2.3 29 8.7 E 9 11 5 6 1023.6 1023.2 0.0
19/10:30pm 22.1 19.0 3.7 30 8.9 E 9 13 5 7 1023.6 1023.2 0.0
19/10:00pm 21.3 18.7 4.4 33 8.2 ENE 7 7 4 4 1023.4 1023.0 0.0
19/09:30pm 20.5 17.1 1.9 29 8.6 E 9 9 5 5 1023.1 1022.7 0.0
19/09:00pm 21.4 18.5 1.6 27 9.2 E 6 7 3 4 1023.0 1022.6 0.0
19/08:30pm 23.0 20.0 1.9 25 10.0 ENE 7 9 4 5 1022.6 1022.2 0.0
19/08:00pm 24.4 21.3 1.3 22 10.9 E 7 9 4 5 1022.3 1021.9 0.0
19/07:30pm 27.8 25.4 4.2 22 12.0 ENE 6 7 3 4 1021.9 1021.5 0.0
19/07:00pm 29.1 26.4 3.9 20 12.8 E 7 11 4 6 1021.5 1021.1 0.0
19/06:30pm 30.2 27.7 4.0 19 13.5 W 6 9 3 5 1021.3 1020.9 0.0
19/06:00pm 30.4 27.4 4.2 19 13.5 ENE 9 15 5 8 1021.1 1020.7 0.0
19/05:30pm 30.8 28.1 3.8 18 13.9 ENE 7 15 4 8 1021.1 1020.7 0.0
19/05:00pm 30.6 26.9 4.4 19 13.6 NNE 13 17 7 9 1021.0 1020.6 0.0
19/04:30pm 30.7 26.8 5.2 20 13.4 SE 15 19 8 10 1021.1 1020.7 0.0
19/04:00pm 31.1 27.8 6.2 21 13.3 NNW 13 17 7 9 1021.4 1021.0 0.0
19/03:30pm 30.5 27.8 5.7 21 13.2 WNW 9 15 5 8 1021.8 1021.4 0.0
19/03:00pm 30.8 28.6 6.0 21 13.2 E 7 13 4 7 1022.3 1021.9 0.0
19/02:30pm 31.0 28.2 6.8 22 13.1 NE 11 17 6 9 1022.7 1022.3 0.0
19/02:00pm 30.0 27.0 6.0 22 12.7 N 11 20 6 11 1023.4 1023.0 0.0
19/01:30pm 30.1 26.5 6.7 23 12.6 NNE 15 24 8 13 1023.9 1023.6 0.0
19/01:00pm 29.1 26.7 7.1 25 11.8 SE 9 17 5 9 1024.6 1024.3 0.0
19/12:30pm 28.2 25.4 6.9 26 11.4 ENE 11 22 6 12 1025.2 1024.8 0.0
19/12:00pm 27.8 23.8 8.1 29 10.7 NE 19 24 10 13 1025.6 1025.2 0.0
19/11:30am 26.5 22.7 8.9 33 9.7 NNW 19 24 10 13 1026.1 1025.7 0.0
19/11:00am 25.5 21.6 9.3 36 8.9 NNE 20 30 11 16 1026.6 1026.2 0.0
19/10:30am 25.4 21.6 9.7 37 8.7 NNW 20 26 11 14 1026.9 1026.5 0.0
19/10:00am 24.2 19.6 9.8 40 7.9 N 24 35 13 19 1026.9 1026.5 0.0
19/09:30am 23.3 18.4 10.0 43 7.3 N 26 35 14 19 1027.0 1026.6 0.0
19/09:00am 21.5 16.0 9.1 45 6.6 NNE 28 35 15 19 1027.0 1026.6 0.0
19/08:30am 20.0 15.5 8.4 47 6.1 NNE 22 30 12 16 1026.9 1026.5 0.0
19/08:00am 17.5 12.8 6.1 47 5.6 NE 20 24 11 13 1026.6 1026.2 0.0
19/07:30am 16.0 10.6 4.4 46 5.5 NE 22 30 12 16 1026.2 1025.8 0.0
19/07:00am 14.4 9.7 2.9 46 5.1 NE 17 20 9 11 1025.9 1025.5 0.0
19/06:30am 14.3 10.3 2.9 46 5.1 ENE 13 17 7 9 1025.4 1025.0 0.0
19/06:00am 14.7 10.3 2.9 45 5.3 ENE 15 20 8 11 1024.8 1024.5 0.0
19/05:30am 14.2 8.9 1.8 43 5.4 E 19 26 10 14 1024.4 1024.1 0.0
19/05:00am 14.4 9.5 1.7 42 5.5 E 17 22 9 12 1024.2 1023.9 0.0
19/04:30am 15.7 10.5 2.5 41 6.0 E 19 26 10 14 1024.1 1023.8 0.0
19/04:00am 16.1 11.4 2.9 41 6.0 E 17 30 9 16 1024.0 1023.7 0.0
19/03:30am 15.5 10.7 0.1 35 6.6 E 15 19 8 10 1024.0 1023.7 0.0
19/03:00am 15.7 11.2 -0.1 34 6.7 E 13 17 7 9 1024.1 1023.8 0.0
19/02:46am 16.0 11.7 1.0 36 6.6 E 13 19 7 10 1024.1 1023.8 0.0
19/02:30am 11.0 6.8 -3.8 35 5.5 ESE 9 11 5 6 1024.2 1023.9 0.0
19/02:00am 12.2 8.7 -3.2 34 5.9 ESE 6 7 3 4 1024.1 1023.8 0.0
19/01:30am 13.1 9.4 -2.8 33 6.2 E 7 7 4 4 1024.3 1024.0 0.0
19/01:00am 13.6 9.8 -4.1 29 6.7 ESE 7 7 4 4 1024.6 1024.3 0.0
19/12:30am 14.4 10.6 -3.4 29 7.0 SE 7 9 4 5 1024.6 1024.3 0.0
19/12:00am 14.3 10.2 -3.0 30 6.8 ESE 9 11 5 6 1024.7 1024.4 0.0
 
Date/Time
EDT
Temp
°C
App
Temp
°C
Dew
Point
Rel
Hum
%
Delta-T
°C
Wind Press
QNH
hPa
Press
MSL
hPa
Rain
since 9 am
mm
Dir
 
Spd
km/h
Gust
km/h
Spd
kts
Gust
kts
18/11:30pm 13.9 9.8 -3.4 30 6.8 ESE 9 13 5 7 1024.7 1024.4 0.0
18/11:00pm 14.2 10.3 -5.0 26 7.2 SE 7 7 4 4 1024.6 1024.3 0.0
18/10:30pm 16.3 12.2 -2.7 27 7.7 SE 9 9 5 5 1024.7 1024.4 0.0
18/10:00pm 16.8 13.1 -3.3 25 8.1 SE 7 9 4 5 1024.5 1024.2 0.0
18/09:30pm 18.1 15.4 -2.2 25 8.5 SE 2 6 1 3 1024.3 1024.0 0.0
18/09:00pm 20.7 17.2 -1.2 23 9.5 E 7 9 4 5 1024.0 1023.7 0.0
18/08:30pm 21.9 18.1 -0.8 22 10.1 ESE 9 11 5 6 1023.9 1023.6 0.0
18/08:00pm 23.2 19.2 0.3 22 10.5 ESE 11 15 6 8 1023.4 1023.0 0.0
18/07:30pm 24.5 20.5 0.8 21 11.1 SE 11 13 6 7 1023.1 1022.7 0.0
18/07:00pm 26.4 22.2 1.7 20 11.9 E 13 19 7 10 1022.7 1022.3 0.0
18/06:30pm 27.2 23.4 1.6 19 12.4 E 11 17 6 9 1022.2 1021.8 0.0
18/06:00pm 27.6 23.8 1.9 19 12.5 E 11 19 6 10 1022.0 1021.6 0.0
18/05:30pm 27.9 23.3 1.4 18 12.9 SE 15 20 8 11 1021.9 1021.5 0.0
18/05:00pm 28.4 23.2 3.3 20 12.6 E 20 24 11 13 1022.0 1021.6 0.0
18/04:30pm 27.6 23.4 1.9 19 12.6 ESE 13 22 7 12 1022.0 1021.6 0.0

Other Formats:

Comma delimited format used in spreadsheet applications
http://www.bom.gov.au/fwo/IDN60801/IDN60801.95715.axf

JavaScript Object Notation format (JSON) in row-major order
http://www.bom.gov.au/fwo/IDN60801/IDN60801.95715.json